UAL595 KSFO-KLAX
Flight info
| Callsign | UAL595 |
|---|---|
| Flight time | 0h 55m |
| Altitude | 33000 |
| Route | WESLA5 SUSEY EBAYE BURGL IRNMN2 |
| Aircraft | B77W/H-SDE1E2E3FGHIJ2J3J4J5M1RWXY/LB1D1 |
Departure
| Time | 2026-04-25 03:30 |
|---|---|
| Airport | San Francisco International Airport (KSFO) |
Arrival
| Time | 2026-04-25 04:26 |
|---|---|
| Airport | Los Angeles International Airport (KLAX) |
| Time | Latitude | Longitude | Altitude | Speed | Heading |
|---|---|---|---|---|---|
| 2026-04-25 03:09 | 37.62122 | -122.38834 | 20 ft | 0 kts | 208° |
| 2026-04-25 03:22 | 37.62125 | -122.38831 | 20 ft | 3 kts | 208° |
| 2026-04-25 03:22 | 37.62149 | -122.38816 | 21 ft | 4 kts | 208° |
| 2026-04-25 03:22 | 37.62173 | -122.38800 | 20 ft | 4 kts | 199° |
| 2026-04-25 03:22 | 37.62198 | -122.38796 | 21 ft | 4 kts | 166° |
| 2026-04-25 03:23 | 37.62221 | -122.38810 | 20 ft | 4 kts | 129° |
| 2026-04-25 03:23 | 37.62226 | -122.38819 | 20 ft | 0 kts | 119° |
| 2026-04-25 03:25 | 37.62207 | -122.38776 | 19 ft | 20 kts | 119° |
| 2026-04-25 03:25 | 37.62137 | -122.38613 | 26 ft | 21 kts | 117° |
| 2026-04-25 03:25 | 37.62070 | -122.38451 | 28 ft | 21 kts | 117° |
| 2026-04-25 03:26 | 37.62002 | -122.38287 | 28 ft | 21 kts | 118° |
| 2026-04-25 03:26 | 37.61932 | -122.38122 | 26 ft | 22 kts | 118° |
| 2026-04-25 03:26 | 37.61860 | -122.37950 | 31 ft | 22 kts | 117° |
| 2026-04-25 03:26 | 37.61797 | -122.37762 | 27 ft | 24 kts | 111° |
| 2026-04-25 03:27 | 37.61737 | -122.37568 | 30 ft | 24 kts | 112° |
| 2026-04-25 03:27 | 37.61665 | -122.37379 | 27 ft | 24 kts | 118° |
| 2026-04-25 03:27 | 37.61586 | -122.37196 | 28 ft | 24 kts | 118° |
| 2026-04-25 03:27 | 37.61508 | -122.37011 | 28 ft | 24 kts | 118° |
| 2026-04-25 03:28 | 37.61412 | -122.36842 | 29 ft | 25 kts | 136° |
| 2026-04-25 03:28 | 37.61316 | -122.36665 | 25 ft | 25 kts | 117° |
| 2026-04-25 03:28 | 37.61235 | -122.36469 | 20 ft | 25 kts | 118° |
| 2026-04-25 03:28 | 37.61152 | -122.36271 | 24 ft | 25 kts | 118° |
| 2026-04-25 03:29 | 37.61072 | -122.36082 | 29 ft | 20 kts | 115° |
| 2026-04-25 03:29 | 37.61059 | -122.35960 | 25 ft | 8 kts | 66° |
| 2026-04-25 03:29 | 37.61106 | -122.35905 | 25 ft | 11 kts | 28° |
| 2026-04-25 03:29 | 37.61203 | -122.35925 | 26 ft | 20 kts | 312° |
| 2026-04-25 03:30 | 37.61294 | -122.36135 | 19 ft | 42 kts | 298° |
| 2026-04-25 03:30 | 37.61447 | -122.36497 | 22 ft | 100 kts | 298° |
| 2026-04-25 03:30 | 37.61894 | -122.37568 | 54 ft | 170 kts | 297° |
| 2026-04-25 03:30 | 37.62678 | -122.39390 | 982 ft | 183 kts | 297° |
| 2026-04-25 03:31 | 37.63100 | -122.40366 | 1518 ft | 194 kts | 297° |
| 2026-04-25 03:31 | 37.63783 | -122.41968 | 2044 ft | 218 kts | 296° |
| 2026-04-25 03:31 | 37.64526 | -122.43684 | 2788 ft | 226 kts | 297° |
| 2026-04-25 03:31 | 37.65290 | -122.45421 | 3004 ft | 230 kts | 298° |
| 2026-04-25 03:32 | 37.66077 | -122.47198 | 3000 ft | 232 kts | 297° |
| 2026-04-25 03:32 | 37.66763 | -122.49014 | 3001 ft | 233 kts | 282° |
| 2026-04-25 03:32 | 37.66717 | -122.51089 | 2992 ft | 242 kts | 252° |
| 2026-04-25 03:32 | 37.65806 | -122.52836 | 3000 ft | 242 kts | 222° |
| 2026-04-25 03:33 | 37.64277 | -122.53789 | 3020 ft | 254 kts | 193° |
| 2026-04-25 03:33 | 37.62510 | -122.53755 | 3017 ft | 258 kts | 170° |
| 2026-04-25 03:33 | 37.60793 | -122.53048 | 3272 ft | 263 kts | 161° |
| 2026-04-25 03:33 | 37.59084 | -122.52202 | 4360 ft | 262 kts | 159° |
| 2026-04-25 03:34 | 37.57383 | -122.51366 | 5484 ft | 265 kts | 159° |
| 2026-04-25 03:34 | 37.55651 | -122.50539 | 6410 ft | 273 kts | 160° |
| 2026-04-25 03:34 | 37.53849 | -122.49697 | 7338 ft | 279 kts | 160° |
| 2026-04-25 03:34 | 37.52015 | -122.48852 | 8326 ft | 282 kts | 160° |
| 2026-04-25 03:35 | 37.50149 | -122.47996 | 9272 ft | 287 kts | 159° |
| 2026-04-25 03:35 | 37.48389 | -122.46792 | 9965 ft | 293 kts | 136° |
| 2026-04-25 03:35 | 37.46968 | -122.44897 | 10495 ft | 309 kts | 131° |
| 2026-04-25 03:35 | 37.45456 | -122.42794 | 10709 ft | 339 kts | 131° |
| 2026-04-25 03:36 | 37.43813 | -122.40516 | 11180 ft | 359 kts | 131° |
| 2026-04-25 03:36 | 37.42105 | -122.38161 | 11992 ft | 369 kts | 131° |
| 2026-04-25 03:36 | 37.40360 | -122.35766 | 12922 ft | 374 kts | 131° |
| 2026-04-25 03:36 | 37.38588 | -122.33344 | 13933 ft | 377 kts | 131° |
| 2026-04-25 03:37 | 37.36801 | -122.30908 | 14843 ft | 382 kts | 131° |
| 2026-04-25 03:37 | 37.34980 | -122.28434 | 15647 ft | 390 kts | 132° |
| 2026-04-25 03:37 | 37.33123 | -122.25913 | 16518 ft | 395 kts | 132° |
| 2026-04-25 03:37 | 37.31241 | -122.23363 | 17385 ft | 402 kts | 133° |
| 2026-04-25 03:38 | 37.29330 | -122.20776 | 18322 ft | 406 kts | 133° |
| 2026-04-25 03:38 | 37.27386 | -122.18150 | 18975 ft | 416 kts | 134° |
| 2026-04-25 03:38 | 37.25394 | -122.15462 | 19656 ft | 424 kts | 134° |
| 2026-04-25 03:38 | 37.23371 | -122.12732 | 20436 ft | 430 kts | 134° |
| 2026-04-25 03:39 | 37.21325 | -122.09972 | 21242 ft | 435 kts | 135° |
| 2026-04-25 03:39 | 37.19246 | -122.07173 | 22010 ft | 442 kts | 135° |
| 2026-04-25 03:39 | 37.17140 | -122.04342 | 22813 ft | 447 kts | 135° |
| 2026-04-25 03:39 | 37.15009 | -122.01473 | 23569 ft | 453 kts | 135° |
| 2026-04-25 03:40 | 37.12869 | -121.98593 | 24059 ft | 463 kts | 136° |
| 2026-04-25 03:40 | 37.10627 | -121.95579 | 24605 ft | 470 kts | 136° |
| 2026-04-25 03:40 | 37.08381 | -121.92569 | 25257 ft | 475 kts | 136° |
| 2026-04-25 03:40 | 37.06143 | -121.89573 | 25870 ft | 480 kts | 136° |
| 2026-04-25 03:41 | 37.03848 | -121.86496 | 26415 ft | 487 kts | 137° |
| 2026-04-25 03:41 | 37.01515 | -121.83376 | 26965 ft | 494 kts | 137° |
| 2026-04-25 03:41 | 36.99149 | -121.80218 | 27515 ft | 500 kts | 138° |
| 2026-04-25 03:41 | 36.96757 | -121.77029 | 28069 ft | 506 kts | 138° |
| 2026-04-25 03:42 | 36.94332 | -121.73797 | 28605 ft | 512 kts | 138° |
| 2026-04-25 03:42 | 36.91881 | -121.70531 | 29142 ft | 518 kts | 138° |
| 2026-04-25 03:42 | 36.89403 | -121.67230 | 29681 ft | 523 kts | 139° |
| 2026-04-25 03:42 | 36.86898 | -121.63897 | 30196 ft | 528 kts | 139° |
| 2026-04-25 03:43 | 36.84376 | -121.60543 | 30669 ft | 531 kts | 139° |
| 2026-04-25 03:43 | 36.81841 | -121.57176 | 31225 ft | 532 kts | 139° |
| 2026-04-25 03:43 | 36.79310 | -121.53817 | 31855 ft | 530 kts | 139° |
| 2026-04-25 03:43 | 36.76769 | -121.50508 | 32554 ft | 525 kts | 141° |
| 2026-04-25 03:44 | 36.74153 | -121.47341 | 33034 ft | 524 kts | 142° |
| 2026-04-25 03:44 | 36.71487 | -121.44247 | 32991 ft | 523 kts | 143° |
| 2026-04-25 03:44 | 36.66138 | -121.38163 | 32993 ft | 519 kts | 143° |
| 2026-04-25 03:45 | 36.60815 | -121.32062 | 33007 ft | 521 kts | 143° |
| 2026-04-25 03:45 | 36.55505 | -121.25913 | 32993 ft | 522 kts | 143° |
| 2026-04-25 03:46 | 36.50231 | -121.19797 | 32989 ft | 521 kts | 143° |
| 2026-04-25 03:46 | 36.44920 | -121.13663 | 32983 ft | 520 kts | 143° |
| 2026-04-25 03:47 | 36.39625 | -121.07551 | 32959 ft | 520 kts | 143° |
| 2026-04-25 03:47 | 36.34331 | -121.01448 | 32958 ft | 519 kts | 143° |
| 2026-04-25 03:48 | 36.29033 | -120.95343 | 32974 ft | 519 kts | 143° |
| 2026-04-25 03:48 | 36.23723 | -120.89266 | 32956 ft | 520 kts | 143° |
| 2026-04-25 03:49 | 36.18408 | -120.83193 | 32941 ft | 519 kts | 143° |
| 2026-04-25 03:49 | 36.13103 | -120.77130 | 32953 ft | 519 kts | 144° |
| 2026-04-25 03:50 | 36.07795 | -120.71074 | 32952 ft | 519 kts | 144° |
| 2026-04-25 03:50 | 36.02492 | -120.65032 | 32944 ft | 517 kts | 144° |
| 2026-04-25 03:51 | 35.97195 | -120.59017 | 32949 ft | 517 kts | 144° |
| 2026-04-25 03:51 | 35.91932 | -120.53053 | 32951 ft | 517 kts | 144° |
| 2026-04-25 03:52 | 35.86638 | -120.47061 | 32950 ft | 515 kts | 144° |
| 2026-04-25 03:52 | 35.81364 | -120.41095 | 32963 ft | 514 kts | 144° |
| 2026-04-25 03:53 | 35.76079 | -120.35154 | 32946 ft | 515 kts | 144° |
| 2026-04-25 03:53 | 35.70783 | -120.29194 | 32955 ft | 515 kts | 144° |
| 2026-04-25 03:54 | 35.65494 | -120.23250 | 32934 ft | 515 kts | 144° |
| 2026-04-25 03:54 | 35.60193 | -120.17302 | 32950 ft | 515 kts | 144° |
| 2026-04-25 03:55 | 35.54901 | -120.11380 | 32933 ft | 514 kts | 145° |
| 2026-04-25 03:55 | 35.49653 | -120.05516 | 32923 ft | 513 kts | 145° |
| 2026-04-25 03:56 | 35.44369 | -119.99631 | 32940 ft | 513 kts | 145° |
| 2026-04-25 03:56 | 35.39088 | -119.93752 | 32860 ft | 510 kts | 145° |
| 2026-04-25 03:57 | 35.33883 | -119.87962 | 32262 ft | 501 kts | 145° |
| 2026-04-25 03:57 | 35.31305 | -119.85104 | 31603 ft | 499 kts | 145° |
| 2026-04-25 03:57 | 35.28761 | -119.82288 | 31526 ft | 488 kts | 146° |
| 2026-04-25 03:58 | 35.26173 | -119.79647 | 31011 ft | 481 kts | 149° |
| 2026-04-25 03:58 | 35.23538 | -119.77183 | 30752 ft | 472 kts | 151° |
| 2026-04-25 03:58 | 35.20906 | -119.74798 | 30141 ft | 471 kts | 150° |
| 2026-04-25 03:58 | 35.18260 | -119.72412 | 29204 ft | 476 kts | 150° |
| 2026-04-25 03:59 | 35.15581 | -119.69976 | 28183 ft | 482 kts | 149° |
| 2026-04-25 03:59 | 35.12904 | -119.67510 | 27362 ft | 483 kts | 149° |
| 2026-04-25 03:59 | 35.10243 | -119.65033 | 26983 ft | 476 kts | 149° |
| 2026-04-25 03:59 | 35.07631 | -119.62591 | 26498 ft | 470 kts | 149° |
| 2026-04-25 04:00 | 35.05046 | -119.60179 | 26091 ft | 463 kts | 149° |
| 2026-04-25 04:00 | 35.02501 | -119.57808 | 25999 ft | 459 kts | 149° |
| 2026-04-25 04:00 | 35.00005 | -119.55490 | 25516 ft | 457 kts | 149° |
| 2026-04-25 04:00 | 34.97473 | -119.53143 | 24853 ft | 458 kts | 149° |
| 2026-04-25 04:01 | 34.94932 | -119.50786 | 24168 ft | 459 kts | 149° |
| 2026-04-25 04:01 | 34.92426 | -119.48473 | 24218 ft | 444 kts | 149° |
| 2026-04-25 04:01 | 34.89993 | -119.46268 | 24229 ft | 427 kts | 150° |
| 2026-04-25 04:01 | 34.87644 | -119.44160 | 24246 ft | 412 kts | 150° |
| 2026-04-25 04:02 | 34.85379 | -119.42134 | 24259 ft | 396 kts | 150° |
| 2026-04-25 04:02 | 34.83172 | -119.40164 | 24314 ft | 394 kts | 150° |
| 2026-04-25 04:02 | 34.80958 | -119.38189 | 24328 ft | 395 kts | 150° |
| 2026-04-25 04:02 | 34.78753 | -119.36215 | 24274 ft | 389 kts | 150° |
| 2026-04-25 04:03 | 34.76607 | -119.34287 | 23822 ft | 381 kts | 150° |
| 2026-04-25 04:03 | 34.74478 | -119.32383 | 23477 ft | 380 kts | 150° |
| 2026-04-25 04:03 | 34.72330 | -119.30499 | 22970 ft | 381 kts | 151° |
| 2026-04-25 04:03 | 34.70175 | -119.28624 | 22506 ft | 381 kts | 151° |
| 2026-04-25 04:04 | 34.68028 | -119.26753 | 22121 ft | 378 kts | 150° |
| 2026-04-25 04:04 | 34.65904 | -119.24897 | 21763 ft | 375 kts | 150° |
| 2026-04-25 04:04 | 34.63805 | -119.23071 | 21271 ft | 367 kts | 151° |
| 2026-04-25 04:04 | 34.61714 | -119.21270 | 20698 ft | 371 kts | 151° |
| 2026-04-25 04:05 | 34.59612 | -119.19467 | 20358 ft | 368 kts | 151° |
| 2026-04-25 04:05 | 34.57535 | -119.17675 | 20074 ft | 364 kts | 150° |
| 2026-04-25 04:05 | 34.55487 | -119.15898 | 19758 ft | 361 kts | 150° |
| 2026-04-25 04:05 | 34.53462 | -119.14106 | 19433 ft | 359 kts | 149° |
| 2026-04-25 04:06 | 34.51454 | -119.12322 | 19115 ft | 357 kts | 149° |
| 2026-04-25 04:06 | 34.49482 | -119.10567 | 18644 ft | 345 kts | 149° |
| 2026-04-25 04:06 | 34.47586 | -119.08882 | 17818 ft | 341 kts | 149° |
| 2026-04-25 04:06 | 34.45673 | -119.07193 | 16901 ft | 339 kts | 149° |
| 2026-04-25 04:07 | 34.43762 | -119.05511 | 16324 ft | 335 kts | 149° |
| 2026-04-25 04:07 | 34.41871 | -119.03871 | 15759 ft | 337 kts | 149° |
| 2026-04-25 04:07 | 34.39966 | -119.02224 | 15330 ft | 337 kts | 149° |
| 2026-04-25 04:07 | 34.38050 | -119.00570 | 14877 ft | 339 kts | 149° |
| 2026-04-25 04:08 | 34.36122 | -118.98906 | 14410 ft | 342 kts | 149° |
| 2026-04-25 04:08 | 34.34189 | -118.97234 | 14127 ft | 340 kts | 148° |
| 2026-04-25 04:08 | 34.32288 | -118.95530 | 13824 ft | 340 kts | 147° |
| 2026-04-25 04:08 | 34.30393 | -118.93796 | 13432 ft | 342 kts | 147° |
| 2026-04-25 04:09 | 34.28494 | -118.92061 | 13069 ft | 342 kts | 147° |
| 2026-04-25 04:09 | 34.26595 | -118.90337 | 12760 ft | 340 kts | 147° |
| 2026-04-25 04:09 | 34.24710 | -118.88623 | 12509 ft | 338 kts | 147° |
| 2026-04-25 04:09 | 34.22847 | -118.86910 | 12238 ft | 335 kts | 146° |
| 2026-04-25 04:10 | 34.21002 | -118.85211 | 12063 ft | 330 kts | 146° |
| 2026-04-25 04:10 | 34.19191 | -118.83544 | 12003 ft | 323 kts | 146° |
| 2026-04-25 04:10 | 34.17434 | -118.81927 | 11943 ft | 312 kts | 146° |
| 2026-04-25 04:10 | 34.15720 | -118.80307 | 11839 ft | 316 kts | 143° |
| 2026-04-25 04:11 | 34.12435 | -118.76731 | 11128 ft | 314 kts | 140° |
| 2026-04-25 04:11 | 34.10868 | -118.74985 | 10775 ft | 298 kts | 141° |
| 2026-04-25 04:11 | 34.09378 | -118.73340 | 10327 ft | 284 kts | 141° |
| 2026-04-25 04:12 | 34.07937 | -118.71764 | 9863 ft | 277 kts | 140° |
| 2026-04-25 04:12 | 34.06509 | -118.70221 | 9483 ft | 275 kts | 140° |
| 2026-04-25 04:12 | 34.05101 | -118.68686 | 9162 ft | 272 kts | 140° |
| 2026-04-25 04:12 | 34.03730 | -118.67159 | 9036 ft | 262 kts | 134° |
| 2026-04-25 04:13 | 34.02868 | -118.65248 | 8955 ft | 263 kts | 104° |
| 2026-04-25 04:13 | 34.02626 | -118.63065 | 8640 ft | 264 kts | 96° |
| 2026-04-25 04:13 | 34.02436 | -118.60854 | 8283 ft | 266 kts | 97° |
| 2026-04-25 04:13 | 34.02233 | -118.58666 | 8079 ft | 257 kts | 97° |
| 2026-04-25 04:14 | 34.02038 | -118.56573 | 8016 ft | 248 kts | 97° |
| 2026-04-25 04:14 | 34.01844 | -118.54498 | 7995 ft | 249 kts | 97° |
| 2026-04-25 04:14 | 34.01650 | -118.52429 | 7780 ft | 248 kts | 97° |
| 2026-04-25 04:14 | 34.01457 | -118.50375 | 7522 ft | 246 kts | 97° |
| 2026-04-25 04:15 | 34.01265 | -118.48333 | 7268 ft | 244 kts | 97° |
| 2026-04-25 04:15 | 34.01078 | -118.46346 | 7081 ft | 238 kts | 96° |
| 2026-04-25 04:15 | 34.01147 | -118.44355 | 6828 ft | 236 kts | 79° |
| 2026-04-25 04:15 | 34.01503 | -118.42414 | 6491 ft | 239 kts | 77° |
| 2026-04-25 04:16 | 34.01876 | -118.40457 | 6193 ft | 239 kts | 77° |
| 2026-04-25 04:16 | 34.02230 | -118.38523 | 6065 ft | 232 kts | 78° |
| 2026-04-25 04:16 | 34.02564 | -118.36634 | 6012 ft | 232 kts | 79° |
| 2026-04-25 04:16 | 34.02867 | -118.34701 | 6016 ft | 238 kts | 83° |
| 2026-04-25 04:17 | 34.03072 | -118.32704 | 6013 ft | 242 kts | 84° |
| 2026-04-25 04:17 | 34.03267 | -118.30688 | 6011 ft | 242 kts | 84° |
| 2026-04-25 04:17 | 34.03462 | -118.28692 | 5808 ft | 247 kts | 83° |
| 2026-04-25 04:17 | 34.03669 | -118.26632 | 5517 ft | 248 kts | 84° |
| 2026-04-25 04:18 | 34.03864 | -118.24573 | 5236 ft | 246 kts | 84° |
| 2026-04-25 04:18 | 34.04054 | -118.22554 | 5071 ft | 233 kts | 84° |
| 2026-04-25 04:18 | 34.04231 | -118.20670 | 5010 ft | 221 kts | 85° |
| 2026-04-25 04:18 | 34.04396 | -118.18785 | 4781 ft | 230 kts | 85° |
| 2026-04-25 04:19 | 34.04553 | -118.16845 | 4560 ft | 232 kts | 85° |
| 2026-04-25 04:19 | 34.04673 | -118.15569 | 4494 ft | 229 kts | 84° |
| 2026-04-25 04:19 | 34.04708 | -118.13730 | 4450 ft | 213 kts | 105° |
| 2026-04-25 04:19 | 34.03993 | -118.12256 | 4409 ft | 202 kts | 142° |
| 2026-04-25 04:20 | 34.02734 | -118.11555 | 4326 ft | 201 kts | 168° |
| 2026-04-25 04:20 | 34.01347 | -118.11373 | 4209 ft | 202 kts | 188° |
| 2026-04-25 04:20 | 34.00114 | -118.12096 | 4119 ft | 198 kts | 223° |
| 2026-04-25 04:20 | 33.99207 | -118.13345 | 4050 ft | 199 kts | 231° |
| 2026-04-25 04:21 | 33.98344 | -118.14648 | 3915 ft | 199 kts | 231° |
| 2026-04-25 04:21 | 33.97482 | -118.15958 | 3774 ft | 201 kts | 231° |
| 2026-04-25 04:21 | 33.96618 | -118.17276 | 3640 ft | 197 kts | 231° |
| 2026-04-25 04:21 | 33.95928 | -118.18654 | 3609 ft | 194 kts | 252° |
| 2026-04-25 04:22 | 33.95642 | -118.20260 | 3653 ft | 198 kts | 258° |
| 2026-04-25 04:22 | 33.95404 | -118.21931 | 3367 ft | 205 kts | 260° |
| 2026-04-25 04:22 | 33.95208 | -118.23609 | 2920 ft | 202 kts | 262° |
| 2026-04-25 04:22 | 33.95046 | -118.25294 | 2440 ft | 198 kts | 263° |
| 2026-04-25 04:23 | 33.94949 | -118.26898 | 1911 ft | 189 kts | 264° |
| 2026-04-25 04:23 | 33.94751 | -118.28355 | 1613 ft | 166 kts | 257° |
| 2026-04-25 04:23 | 33.94605 | -118.29672 | 1167 ft | 153 kts | 263° |
| 2026-04-25 04:23 | 33.94508 | -118.30851 | 989 ft | 137 kts | 262° |
| 2026-04-25 04:24 | 33.94391 | -118.31978 | 945 ft | 134 kts | 260° |
| 2026-04-25 04:24 | 33.94258 | -118.33098 | 855 ft | 135 kts | 260° |
| 2026-04-25 04:24 | 33.94135 | -118.34225 | 760 ft | 137 kts | 262° |
| 2026-04-25 04:24 | 33.94042 | -118.35366 | 599 ft | 137 kts | 263° |
| 2026-04-25 04:25 | 33.93921 | -118.36477 | 445 ft | 134 kts | 261° |
| 2026-04-25 04:25 | 33.93805 | -118.37605 | 243 ft | 135 kts | 261° |
| 2026-04-25 04:25 | 33.93690 | -118.38714 | 101 ft | 129 kts | 263° |
| 2026-04-25 04:25 | 33.93598 | -118.39629 | 101 ft | 88 kts | 263° |
| 2026-04-25 04:26 | 33.93541 | -118.40188 | 100 ft | 57 kts | 263° |
| 2026-04-25 04:26 | 33.93539 | -118.40440 | 103 ft | 12 kts | 282° |
| 2026-04-25 04:26 | 33.93563 | -118.40538 | 100 ft | 8 kts | 289° |
| 2026-04-25 04:26 | 33.93584 | -118.40607 | 101 ft | 6 kts | 289° |
| 2026-04-25 04:27 | 33.93594 | -118.40641 | 102 ft | 0 kts | 289° |
| 2026-04-25 04:27 | 33.93597 | -118.40686 | 100 ft | 8 kts | 269° |
| 2026-04-25 04:27 | 33.93598 | -118.40791 | 101 ft | 15 kts | 278° |
| 2026-04-25 04:28 | 33.93657 | -118.40890 | 102 ft | 15 kts | 340° |
| 2026-04-25 04:28 | 33.93758 | -118.40895 | 100 ft | 14 kts | 29° |
| 2026-04-25 04:28 | 33.93798 | -118.40789 | 102 ft | 14 kts | 80° |
| 2026-04-25 04:28 | 33.93811 | -118.40670 | 101 ft | 14 kts | 83° |
| 2026-04-25 04:29 | 33.93823 | -118.40551 | 102 ft | 15 kts | 83° |
| 2026-04-25 04:29 | 33.93837 | -118.40403 | 102 ft | 18 kts | 83° |
| 2026-04-25 04:29 | 33.93855 | -118.40238 | 101 ft | 21 kts | 83° |
| 2026-04-25 04:29 | 33.93871 | -118.40067 | 101 ft | 21 kts | 83° |
| 2026-04-25 04:30 | 33.93889 | -118.39899 | 101 ft | 20 kts | 83° |
| 2026-04-25 04:30 | 33.93947 | -118.39814 | 100 ft | 14 kts | 6° |
| 2026-04-25 04:30 | 33.94043 | -118.39821 | 99 ft | 11 kts | 360° |
| 2026-04-25 04:30 | 33.94087 | -118.39865 | 100 ft | 4 kts | 308° |
| 2026-04-25 04:31 | 33.94103 | -118.39891 | 101 ft | 4 kts | 307° |
| 2026-04-25 04:31 | 33.94105 | -118.39894 | 101 ft | 0 kts | 307° |